sensor_id;sensor_type;location;lat;lon;timestamp;temperature;humidity
69261;DHT22;56378;52.404;20.816;2023-02-22T00:01:15;1.90;99.90
69261;DHT22;56378;52.404;20.816;2023-02-22T00:03:50;1.80;99.90
69261;DHT22;56378;52.404;20.816;2023-02-22T00:06:19;1.80;99.90
69261;DHT22;56378;52.404;20.816;2023-02-22T00:08:47;1.80;99.90
69261;DHT22;56378;52.404;20.816;2023-02-22T00:11:15;1.70;99.90
69261;DHT22;56378;52.404;20.816;2023-02-22T00:13:41;1.70;99.90
69261;DHT22;56378;52.404;20.816;2023-02-22T00:16:16;1.60;99.90
69261;DHT22;56378;52.404;20.816;2023-02-22T00:18:42;1.50;99.90
69261;DHT22;56378;52.404;20.816;2023-02-22T00:21:10;1.50;99.90
69261;DHT22;56378;52.404;20.816;2023-02-22T00:23:40;1.40;99.90
69261;DHT22;56378;52.404;20.816;2023-02-22T00:26:11;1.40;99.90
69261;DHT22;56378;52.404;20.816;2023-02-22T00:28:37;1.40;99.90
69261;DHT22;56378;52.404;20.816;2023-02-22T00:31:06;1.30;99.90
69261;DHT22;56378;52.404;20.816;2023-02-22T00:33:33;1.30;99.90
69261;DHT22;56378;52.404;20.816;2023-02-22T00:36:01;1.20;99.90
69261;DHT22;56378;52.404;20.816;2023-02-22T00:38:26;1.20;99.90
69261;DHT22;56378;52.404;20.816;2023-02-22T00:40:52;1.10;99.90
69261;DHT22;56378;52.404;20.816;2023-02-22T00:43:18;1.10;99.90
69261;DHT22;56378;52.404;20.816;2023-02-22T00:45:44;1.10;99.90
69261;DHT22;56378;52.404;20.816;2023-02-22T00:48:10;1.00;99.90
69261;DHT22;56378;52.404;20.816;2023-02-22T00:50:36;1.00;99.90
69261;DHT22;56378;52.404;20.816;2023-02-22T00:53:03;0.90;99.90
69261;DHT22;56378;52.404;20.816;2023-02-22T00:55:31;0.80;99.90
69261;DHT22;56378;52.404;20.816;2023-02-22T00:57:58;0.80;99.90
69261;DHT22;56378;52.404;20.816;2023-02-22T01:00:27;0.70;99.90
69261;DHT22;56378;52.404;20.816;2023-02-22T01:02:54;0.70;99.90
69261;DHT22;56378;52.404;20.816;2023-02-22T01:05:26;0.70;99.90
69261;DHT22;56378;52.404;20.816;2023-02-22T01:07:53;0.70;99.90
69261;DHT22;56378;52.404;20.816;2023-02-22T01:10:24;0.60;99.90
69261;DHT22;56378;52.404;20.816;2023-02-22T01:12:51;0.60;99.90
69261;DHT22;56378;52.404;20.816;2023-02-22T01:15:22;0.60;99.90
69261;DHT22;56378;52.404;20.816;2023-02-22T01:17:52;0.60;99.90
69261;DHT22;56378;52.404;20.816;2023-02-22T01:20:19;0.60;99.90
69261;DHT22;56378;52.404;20.816;2023-02-22T01:22:48;0.50;99.90
69261;DHT22;56378;52.404;20.816;2023-02-22T01:25:19;0.50;99.90
69261;DHT22;56378;52.404;20.816;2023-02-22T01:27:45;0.50;99.90
69261;DHT22;56378;52.404;20.816;2023-02-22T01:30:13;0.50;99.90
69261;DHT22;56378;52.404;20.816;2023-02-22T01:32:40;0.50;99.90
69261;DHT22;56378;52.404;20.816;2023-02-22T01:35:13;0.40;99.90
69261;DHT22;56378;52.404;20.816;2023-02-22T01:37:40;0.50;99.90
69261;DHT22;56378;52.404;20.816;2023-02-22T01:40:09;0.40;99.90
69261;DHT22;56378;52.404;20.816;2023-02-22T01:42:35;0.40;99.90
69261;DHT22;56378;52.404;20.816;2023-02-22T01:48:07;0.50;99.90
69261;DHT22;56378;52.404;20.816;2023-02-22T01:53:28;0.50;99.90
69261;DHT22;56378;52.404;20.816;2023-02-22T01:55:55;0.60;99.90
69261;DHT22;56378;52.404;20.816;2023-02-22T01:58:23;0.60;99.90
69261;DHT22;56378;52.404;20.816;2023-02-22T02:00:50;0.70;99.90
69261;DHT22;56378;52.404;20.816;2023-02-22T02:03:24;0.70;99.90
69261;DHT22;56378;52.404;20.816;2023-02-22T02:05:53;0.70;99.90
69261;DHT22;56378;52.404;20.816;2023-02-22T02:08:49;0.80;99.90
69261;DHT22;56378;52.404;20.816;2023-02-22T02:11:20;0.80;99.90
69261;DHT22;56378;52.404;20.816;2023-02-22T02:13:49;0.80;99.90
69261;DHT22;56378;52.404;20.816;2023-02-22T02:16:16;0.90;99.90
69261;DHT22;56378;52.404;20.816;2023-02-22T02:18:42;0.90;99.90
69261;DHT22;56378;52.404;20.816;2023-02-22T02:24:12;0.90;99.90
69261;DHT22;56378;52.404;20.816;2023-02-22T02:26:45;0.90;99.90
69261;DHT22;56378;52.404;20.816;2023-02-22T02:40:54;1.10;99.90
69261;DHT22;56378;52.404;20.816;2023-02-22T02:43:33;1.10;99.90
69261;DHT22;56378;52.404;20.816;2023-02-22T02:46:30;1.10;99.90
69261;DHT22;56378;52.404;20.816;2023-02-22T02:49:04;1.10;99.90
69261;DHT22;56378;52.404;20.816;2023-02-22T02:51:35;1.10;99.90
69261;DHT22;56378;52.404;20.816;2023-02-22T02:54:03;1.20;99.90
69261;DHT22;56378;52.404;20.816;2023-02-22T02:56:30;1.20;99.90
69261;DHT22;56378;52.404;20.816;2023-02-22T02:58:56;1.20;99.90
69261;DHT22;56378;52.404;20.816;2023-02-22T03:01:50;1.20;99.90
69261;DHT22;56378;52.404;20.816;2023-02-22T03:04:36;1.30;99.90
69261;DHT22;56378;52.404;20.816;2023-02-22T03:10:17;1.30;99.90
69261;DHT22;56378;52.404;20.816;2023-02-22T03:18:27;1.30;99.90
69261;DHT22;56378;52.404;20.816;2023-02-22T03:21:16;1.40;99.90
69261;DHT22;56378;52.404;20.816;2023-02-22T03:26:34;1.40;99.90
69261;DHT22;56378;52.404;20.816;2023-02-22T03:29:04;1.40;99.90
69261;DHT22;56378;52.404;20.816;2023-02-22T03:31:34;1.40;99.90
69261;DHT22;56378;52.404;20.816;2023-02-22T03:34:28;1.40;99.90
69261;DHT22;56378;52.404;20.816;2023-02-22T03:36:58;1.40;99.90
69261;DHT22;56378;52.404;20.816;2023-02-22T03:39:26;1.40;99.90
69261;DHT22;56378;52.404;20.816;2023-02-22T03:42:02;1.40;99.90
69261;DHT22;56378;52.404;20.816;2023-02-22T03:44:30;1.40;99.90
69261;DHT22;56378;52.404;20.816;2023-02-22T03:47:00;1.40;99.90
69261;DHT22;56378;52.404;20.816;2023-02-22T03:49:36;1.40;99.90
69261;DHT22;56378;52.404;20.816;2023-02-22T03:52:03;1.40;99.90
69261;DHT22;56378;52.404;20.816;2023-02-22T03:54:30;1.50;99.90
69261;DHT22;56378;52.404;20.816;2023-02-22T03:56:59;1.50;99.90
69261;DHT22;56378;52.404;20.816;2023-02-22T03:59:29;1.40;99.90
69261;DHT22;56378;52.404;20.816;2023-02-22T04:01:56;1.40;99.90
69261;DHT22;56378;52.404;20.816;2023-02-22T04:04:23;1.50;99.90
69261;DHT22;56378;52.404;20.816;2023-02-22T04:06:50;1.50;99.90
69261;DHT22;56378;52.404;20.816;2023-02-22T04:09:16;1.40;99.90
69261;DHT22;56378;52.404;20.816;2023-02-22T04:11:42;1.40;99.90
69261;DHT22;56378;52.404;20.816;2023-02-22T04:14:08;1.50;99.90
69261;DHT22;56378;52.404;20.816;2023-02-22T04:16:34;1.40;99.90
69261;DHT22;56378;52.404;20.816;2023-02-22T04:19:00;1.40;99.90
69261;DHT22;56378;52.404;20.816;2023-02-22T04:21:26;1.40;99.90
69261;DHT22;56378;52.404;20.816;2023-02-22T04:23:51;1.40;99.90
69261;DHT22;56378;52.404;20.816;2023-02-22T04:26:17;1.40;99.90
69261;DHT22;56378;52.404;20.816;2023-02-22T04:28:43;1.40;99.90
69261;DHT22;56378;52.404;20.816;2023-02-22T04:31:09;1.40;99.90
69261;DHT22;56378;52.404;20.816;2023-02-22T04:33:34;1.40;99.90
69261;DHT22;56378;52.404;20.816;2023-02-22T04:36:00;1.40;99.90
69261;DHT22;56378;52.404;20.816;2023-02-22T04:38:26;1.40;99.90
69261;DHT22;56378;52.404;20.816;2023-02-22T04:40:53;1.40;99.90
69261;DHT22;56378;52.404;20.816;2023-02-22T04:43:19;1.30;99.90
69261;DHT22;56378;52.404;20.816;2023-02-22T04:45:45;1.30;99.90
69261;DHT22;56378;52.404;20.816;2023-02-22T04:48:11;1.30;99.90
69261;DHT22;56378;52.404;20.816;2023-02-22T04:50:37;1.30;99.90
69261;DHT22;56378;52.404;20.816;2023-02-22T04:53:04;1.30;99.90
69261;DHT22;56378;52.404;20.816;2023-02-22T04:55:29;1.20;99.90
69261;DHT22;56378;52.404;20.816;2023-02-22T04:57:55;1.20;99.90
69261;DHT22;56378;52.404;20.816;2023-02-22T05:00:22;1.30;99.90
69261;DHT22;56378;52.404;20.816;2023-02-22T05:02:49;1.20;99.90
69261;DHT22;56378;52.404;20.816;2023-02-22T05:05:17;1.20;99.90
69261;DHT22;56378;52.404;20.816;2023-02-22T05:07:43;1.20;99.90
69261;DHT22;56378;52.404;20.816;2023-02-22T05:10:11;1.20;99.90
69261;DHT22;56378;52.404;20.816;2023-02-22T05:12:37;1.20;99.90
69261;DHT22;56378;52.404;20.816;2023-02-22T05:15:05;1.20;99.90
69261;DHT22;56378;52.404;20.816;2023-02-22T05:17:31;1.10;99.90
69261;DHT22;56378;52.404;20.816;2023-02-22T05:19:57;1.10;99.90
69261;DHT22;56378;52.404;20.816;2023-02-22T05:22:23;1.10;99.90
69261;DHT22;56378;52.404;20.816;2023-02-22T05:24:49;1.10;99.90
69261;DHT22;56378;52.404;20.816;2023-02-22T05:27:17;1.10;99.90
69261;DHT22;56378;52.404;20.816;2023-02-22T05:29:43;1.10;99.90
69261;DHT22;56378;52.404;20.816;2023-02-22T05:32:09;1.10;99.90
69261;DHT22;56378;52.404;20.816;2023-02-22T05:34:37;1.10;99.90
69261;DHT22;56378;52.404;20.816;2023-02-22T05:37:03;1.10;99.90
69261;DHT22;56378;52.404;20.816;2023-02-22T05:39:29;1.10;99.90
69261;DHT22;56378;52.404;20.816;2023-02-22T05:41:55;1.10;99.90
69261;DHT22;56378;52.404;20.816;2023-02-22T05:44:21;1.10;99.90
69261;DHT22;56378;52.404;20.816;2023-02-22T05:46:47;1.10;99.90
69261;DHT22;56378;52.404;20.816;2023-02-22T05:49:12;1.10;99.90
69261;DHT22;56378;52.404;20.816;2023-02-22T05:51:38;1.00;99.90
69261;DHT22;56378;52.404;20.816;2023-02-22T05:54:04;1.10;99.90
69261;DHT22;56378;52.404;20.816;2023-02-22T05:56:30;1.10;99.90
69261;DHT22;56378;52.404;20.816;2023-02-22T05:58:56;1.00;99.90
69261;DHT22;56378;52.404;20.816;2023-02-22T06:01:23;1.00;99.90
69261;DHT22;56378;52.404;20.816;2023-02-22T06:03:49;1.00;99.90
69261;DHT22;56378;52.404;20.816;2023-02-22T06:06:16;1.00;99.90
69261;DHT22;56378;52.404;20.816;2023-02-22T06:08:44;1.00;99.90
69261;DHT22;56378;52.404;20.816;2023-02-22T06:11:11;1.00;99.90
69261;DHT22;56378;52.404;20.816;2023-02-22T06:13:37;1.00;99.90
69261;DHT22;56378;52.404;20.816;2023-02-22T06:16:03;1.00;99.90
69261;DHT22;56378;52.404;20.816;2023-02-22T06:18:29;1.00;99.90
69261;DHT22;56378;52.404;20.816;2023-02-22T06:20:56;1.00;99.90
69261;DHT22;56378;52.404;20.816;2023-02-22T06:23:22;0.90;99.90
69261;DHT22;56378;52.404;20.816;2023-02-22T06:25:48;1.00;99.90
69261;DHT22;56378;52.404;20.816;2023-02-22T06:28:14;1.00;99.90
69261;DHT22;56378;52.404;20.816;2023-02-22T06:30:40;1.00;99.90
69261;DHT22;56378;52.404;20.816;2023-02-22T06:33:10;1.00;99.90
69261;DHT22;56378;52.404;20.816;2023-02-22T06:35:36;1.10;99.90
69261;DHT22;56378;52.404;20.816;2023-02-22T06:38:02;1.10;99.90
69261;DHT22;56378;52.404;20.816;2023-02-22T06:40:27;1.10;99.90
69261;DHT22;56378;52.404;20.816;2023-02-22T06:42:55;1.20;99.90
69261;DHT22;56378;52.404;20.816;2023-02-22T06:45:21;1.20;99.90
69261;DHT22;56378;52.404;20.816;2023-02-22T06:47:47;1.20;99.90
69261;DHT22;56378;52.404;20.816;2023-02-22T06:50:23;1.30;99.90
69261;DHT22;56378;52.404;20.816;2023-02-22T06:52:51;1.30;99.90
69261;DHT22;56378;52.404;20.816;2023-02-22T06:55:20;1.30;99.90
69261;DHT22;56378;52.404;20.816;2023-02-22T06:57:46;1.30;99.90
69261;DHT22;56378;52.404;20.816;2023-02-22T07:00:15;1.30;99.90
69261;DHT22;56378;52.404;20.816;2023-02-22T07:02:41;1.40;99.90
69261;DHT22;56378;52.404;20.816;2023-02-22T07:05:10;1.40;99.90
69261;DHT22;56378;52.404;20.816;2023-02-22T07:07:37;1.40;99.90
69261;DHT22;56378;52.404;20.816;2023-02-22T07:10:05;1.50;99.90
69261;DHT22;56378;52.404;20.816;2023-02-22T07:12:30;1.50;99.90
69261;DHT22;56378;52.404;20.816;2023-02-22T07:14:57;1.60;99.90
69261;DHT22;56378;52.404;20.816;2023-02-22T07:17:22;1.60;99.90
69261;DHT22;56378;52.404;20.816;2023-02-22T07:19:48;1.60;99.90
69261;DHT22;56378;52.404;20.816;2023-02-22T07:22:13;1.60;99.90
69261;DHT22;56378;52.404;20.816;2023-02-22T07:24:39;1.70;99.90
69261;DHT22;56378;52.404;20.816;2023-02-22T07:27:05;1.70;99.90
69261;DHT22;56378;52.404;20.816;2023-02-22T07:29:31;1.80;99.90
69261;DHT22;56378;52.404;20.816;2023-02-22T07:31:57;1.80;99.90
69261;DHT22;56378;52.404;20.816;2023-02-22T07:34:23;1.80;99.80
69261;DHT22;56378;52.404;20.816;2023-02-22T07:36:49;1.90;99.10
69261;DHT22;56378;52.404;20.816;2023-02-22T07:39:15;2.00;98.50
69261;DHT22;56378;52.404;20.816;2023-02-22T07:41:40;2.00;97.70
69261;DHT22;56378;52.404;20.816;2023-02-22T07:44:06;2.10;96.80
69261;DHT22;56378;52.404;20.816;2023-02-22T07:46:32;2.10;95.70
69261;DHT22;56378;52.404;20.816;2023-02-22T07:48:58;2.10;95.20
69261;DHT22;56378;52.404;20.816;2023-02-22T07:51:24;2.20;94.90
69261;DHT22;56378;52.404;20.816;2023-02-22T07:53:49;2.30;93.50
69261;DHT22;56378;52.404;20.816;2023-02-22T07:56:15;2.30;92.40
69261;DHT22;56378;52.404;20.816;2023-02-22T07:58:42;2.40;92.20
69261;DHT22;56378;52.404;20.816;2023-02-22T08:01:08;2.40;92.10
69261;DHT22;56378;52.404;20.816;2023-02-22T08:03:34;2.50;91.40
69261;DHT22;56378;52.404;20.816;2023-02-22T08:06:03;2.60;90.70
69261;DHT22;56378;52.404;20.816;2023-02-22T08:08:29;2.60;89.60
69261;DHT22;56378;52.404;20.816;2023-02-22T08:10:56;2.70;89.00
69261;DHT22;56378;52.404;20.816;2023-02-22T08:13:22;2.80;88.10
69261;DHT22;56378;52.404;20.816;2023-02-22T08:15:51;2.80;85.50
69261;DHT22;56378;52.404;20.816;2023-02-22T08:18:19;2.80;85.80
69261;DHT22;56378;52.404;20.816;2023-02-22T08:20:47;2.80;84.90
69261;DHT22;56378;52.404;20.816;2023-02-22T08:23:15;2.80;84.80
69261;DHT22;56378;52.404;20.816;2023-02-22T08:25:41;2.90;84.60
69261;DHT22;56378;52.404;20.816;2023-02-22T08:28:09;2.90;84.20
69261;DHT22;56378;52.404;20.816;2023-02-22T08:30:36;2.90;84.00
69261;DHT22;56378;52.404;20.816;2023-02-22T08:33:03;2.90;83.20
69261;DHT22;56378;52.404;20.816;2023-02-22T08:35:30;2.80;83.20
69261;DHT22;56378;52.404;20.816;2023-02-22T08:38:00;2.80;82.60
69261;DHT22;56378;52.404;20.816;2023-02-22T08:40:29;2.80;83.00
69261;DHT22;56378;52.404;20.816;2023-02-22T08:42:55;2.70;83.20
69261;DHT22;56378;52.404;20.816;2023-02-22T08:45:22;2.70;83.00
69261;DHT22;56378;52.404;20.816;2023-02-22T08:47:47;2.80;83.50
69261;DHT22;56378;52.404;20.816;2023-02-22T08:50:26;2.80;83.30
69261;DHT22;56378;52.404;20.816;2023-02-22T08:52:54;2.70;82.70
69261;DHT22;56378;52.404;20.816;2023-02-22T08:55:24;2.80;82.40
69261;DHT22;56378;52.404;20.816;2023-02-22T08:57:50;2.80;82.60
69261;DHT22;56378;52.404;20.816;2023-02-22T09:00:20;2.80;82.50
69261;DHT22;56378;52.404;20.816;2023-02-22T09:02:49;2.70;82.50
69261;DHT22;56378;52.404;20.816;2023-02-22T09:05:15;2.60;81.20
69261;DHT22;56378;52.404;20.816;2023-02-22T09:07:42;2.60;81.50
69261;DHT22;56378;52.404;20.816;2023-02-22T09:10:21;2.50;82.10
69261;DHT22;56378;52.404;20.816;2023-02-22T09:12:51;2.50;82.50
69261;DHT22;56378;52.404;20.816;2023-02-22T09:15:20;2.50;82.10
69261;DHT22;56378;52.404;20.816;2023-02-22T09:17:46;2.40;82.50
69261;DHT22;56378;52.404;20.816;2023-02-22T09:20:13;2.30;78.50
69261;DHT22;56378;52.404;20.816;2023-02-22T09:22:44;2.00;77.10
69261;DHT22;56378;52.404;20.816;2023-02-22T09:25:09;1.90;77.40
69261;DHT22;56378;52.404;20.816;2023-02-22T09:27:35;1.70;78.00
69261;DHT22;56378;52.404;20.816;2023-02-22T09:30:01;1.70;78.10
69261;DHT22;56378;52.404;20.816;2023-02-22T09:32:27;1.70;78.20
69261;DHT22;56378;52.404;20.816;2023-02-22T09:34:53;1.60;78.20
69261;DHT22;56378;52.404;20.816;2023-02-22T09:37:20;1.70;78.40
69261;DHT22;56378;52.404;20.816;2023-02-22T09:39:45;1.70;78.20
69261;DHT22;56378;52.404;20.816;2023-02-22T09:44:51;1.70;76.50
69261;DHT22;56378;52.404;20.816;2023-02-22T09:50:14;1.50;75.50
69261;DHT22;56378;52.404;20.816;2023-02-22T09:52:55;1.50;75.50
69261;DHT22;56378;52.404;20.816;2023-02-22T09:55:39;1.20;74.20
69261;DHT22;56378;52.404;20.816;2023-02-22T10:00:46;1.10;74.80
69261;DHT22;56378;52.404;20.816;2023-02-22T10:05:59;1.10;75.40
69261;DHT22;56378;52.404;20.816;2023-02-22T10:08:31;1.10;74.20
69261;DHT22;56378;52.404;20.816;2023-02-22T10:16:39;1.00;74.50
69261;DHT22;56378;52.404;20.816;2023-02-22T10:20:14;1.00;74.20
69261;DHT22;56378;52.404;20.816;2023-02-22T10:25:13;1.00;72.80
69261;DHT22;56378;52.404;20.816;2023-02-22T10:27:51;1.20;73.40
69261;DHT22;56378;52.404;20.816;2023-02-22T10:30:25;1.40;81.00
69261;DHT22;56378;52.404;20.816;2023-02-22T10:35:37;1.80;71.10
69261;DHT22;56378;52.404;20.816;2023-02-22T10:40:56;2.10;68.10
69261;DHT22;56378;52.404;20.816;2023-02-22T10:43:23;2.30;69.00
69261;DHT22;56378;52.404;20.816;2023-02-22T10:45:52;2.40;68.00
69261;DHT22;56378;52.404;20.816;2023-02-22T10:48:21;2.50;66.90
69261;DHT22;56378;52.404;20.816;2023-02-22T10:50:48;2.60;66.00
69261;DHT22;56378;52.404;20.816;2023-02-22T10:53:15;2.70;66.00
69261;DHT22;56378;52.404;20.816;2023-02-22T10:56:13;2.80;65.20
69261;DHT22;56378;52.404;20.816;2023-02-22T10:59:01;2.80;65.60
69261;DHT22;56378;52.404;20.816;2023-02-22T11:04:14;3.00;65.00
69261;DHT22;56378;52.404;20.816;2023-02-22T11:06:42;2.90;64.30
69261;DHT22;56378;52.404;20.816;2023-02-22T11:09:17;2.70;63.90
69261;DHT22;56378;52.404;20.816;2023-02-22T11:11:45;2.70;64.20
69261;DHT22;56378;52.404;20.816;2023-02-22T11:14:23;2.80;64.60
69261;DHT22;56378;52.404;20.816;2023-02-22T11:16:52;2.90;63.90
69261;DHT22;56378;52.404;20.816;2023-02-22T11:19:24;2.90;62.90
69261;DHT22;56378;52.404;20.816;2023-02-22T11:21:56;2.90;63.30
69261;DHT22;56378;52.404;20.816;2023-02-22T11:24:24;3.20;63.40
69261;DHT22;56378;52.404;20.816;2023-02-22T11:26:58;3.30;62.60
69261;DHT22;56378;52.404;20.816;2023-02-22T11:29:32;3.20;61.30
69261;DHT22;56378;52.404;20.816;2023-02-22T11:32:20;2.90;61.30
69261;DHT22;56378;52.404;20.816;2023-02-22T11:34:48;2.70;61.50
69261;DHT22;56378;52.404;20.816;2023-02-22T11:39:48;2.80;62.60
69261;DHT22;56378;52.404;20.816;2023-02-22T11:42:26;2.90;61.90
69261;DHT22;56378;52.404;20.816;2023-02-22T11:45:15;2.90;62.90
69261;DHT22;56378;52.404;20.816;2023-02-22T11:48:00;3.10;62.90
69261;DHT22;56378;52.404;20.816;2023-02-22T11:50:39;3.30;61.80
69261;DHT22;56378;52.404;20.816;2023-02-22T11:53:25;3.30;61.80
69261;DHT22;56378;52.404;20.816;2023-02-22T11:58:44;2.90;60.40
69261;DHT22;56378;52.404;20.816;2023-02-22T12:09:15;3.20;61.70
69261;DHT22;56378;52.404;20.816;2023-02-22T12:17:45;3.30;59.50
69261;DHT22;56378;52.404;20.816;2023-02-22T12:19:55;3.20;60.60
69261;DHT22;56378;52.404;20.816;2023-02-22T12:22:32;3.20;60.60
69261;DHT22;56378;52.404;20.816;2023-02-22T12:25:26;3.20;61.30
69261;DHT22;56378;52.404;20.816;2023-02-22T12:28:17;3.30;61.50
69261;DHT22;56378;52.404;20.816;2023-02-22T12:30:51;3.40;61.50
69261;DHT22;56378;52.404;20.816;2023-02-22T12:33:23;3.40;61.90
69261;DHT22;56378;52.404;20.816;2023-02-22T12:35:54;3.50;61.30
69261;DHT22;56378;52.404;20.816;2023-02-22T12:38:29;3.50;60.90
69261;DHT22;56378;52.404;20.816;2023-02-22T12:44:05;3.50;60.50
69261;DHT22;56378;52.404;20.816;2023-02-22T12:46:36;3.50;61.10
69261;DHT22;56378;52.404;20.816;2023-02-22T12:49:13;3.40;60.20
69261;DHT22;56378;52.404;20.816;2023-02-22T12:54:42;3.40;61.40
69261;DHT22;56378;52.404;20.816;2023-02-22T12:57:24;3.40;61.20
69261;DHT22;56378;52.404;20.816;2023-02-22T12:59:56;3.40;61.10
69261;DHT22;56378;52.404;20.816;2023-02-22T13:02:34;3.40;61.30
69261;DHT22;56378;52.404;20.816;2023-02-22T13:05:01;3.30;61.20
69261;DHT22;56378;52.404;20.816;2023-02-22T13:07:52;3.20;60.30
69261;DHT22;56378;52.404;20.816;2023-02-22T13:13:20;2.80;61.30
69261;DHT22;56378;52.404;20.816;2023-02-22T13:16:10;2.80;62.00
69261;DHT22;56378;52.404;20.816;2023-02-22T13:21:18;2.70;62.80
69261;DHT22;56378;52.404;20.816;2023-02-22T13:24:25;2.70;63.00
69261;DHT22;56378;52.404;20.816;2023-02-22T13:30:02;2.60;62.30
69261;DHT22;56378;52.404;20.816;2023-02-22T13:32:35;2.50;62.50
69261;DHT22;56378;52.404;20.816;2023-02-22T13:40:59;2.40;60.60
69261;DHT22;56378;52.404;20.816;2023-02-22T13:49:37;1.90;61.30
69261;DHT22;56378;52.404;20.816;2023-02-22T13:52:16;1.90;61.60
69261;DHT22;56378;52.404;20.816;2023-02-22T13:54:53;1.90;61.90
69261;DHT22;56378;52.404;20.816;2023-02-22T13:57:23;1.90;62.00
69261;DHT22;56378;52.404;20.816;2023-02-22T14:10:51;1.70;61.70
69261;DHT22;56378;52.404;20.816;2023-02-22T14:13:29;1.60;62.10
69261;DHT22;56378;52.404;20.816;2023-02-22T14:18:26;1.60;62.80
69261;DHT22;56378;52.404;20.816;2023-02-22T14:21:15;1.60;62.80
69261;DHT22;56378;52.404;20.816;2023-02-22T14:23:44;1.60;63.50
69261;DHT22;56378;52.404;20.816;2023-02-22T14:31:32;1.60;63.30
69261;DHT22;56378;52.404;20.816;2023-02-22T14:36:43;1.50;63.80
69261;DHT22;56378;52.404;20.816;2023-02-22T14:39:35;1.50;64.00
69261;DHT22;56378;52.404;20.816;2023-02-22T14:47:54;1.30;64.00
69261;DHT22;56378;52.404;20.816;2023-02-22T15:01:25;1.10;64.90
69261;DHT22;56378;52.404;20.816;2023-02-22T15:03:55;1.10;64.30
69261;DHT22;56378;52.404;20.816;2023-02-22T15:06:25;1.00;64.50
69261;DHT22;56378;52.404;20.816;2023-02-22T15:09:30;1.00;64.60
69261;DHT22;56378;52.404;20.816;2023-02-22T15:14:29;1.00;65.40
69261;DHT22;56378;52.404;20.816;2023-02-22T15:16:59;1.00;65.90
69261;DHT22;56378;52.404;20.816;2023-02-22T15:19:31;0.90;65.70
69261;DHT22;56378;52.404;20.816;2023-02-22T15:21:59;0.90;66.20
69261;DHT22;56378;52.404;20.816;2023-02-22T15:24:31;1.00;66.10
69261;DHT22;56378;52.404;20.816;2023-02-22T15:27:13;0.90;65.70
69261;DHT22;56378;52.404;20.816;2023-02-22T15:29:42;0.90;66.40
69261;DHT22;56378;52.404;20.816;2023-02-22T15:32:19;0.90;66.30
69261;DHT22;56378;52.404;20.816;2023-02-22T15:34:54;0.90;66.20
69261;DHT22;56378;52.404;20.816;2023-02-22T15:37:23;0.80;66.30
69261;DHT22;56378;52.404;20.816;2023-02-22T15:40:05;0.80;66.80
69261;DHT22;56378;52.404;20.816;2023-02-22T15:42:32;0.80;66.80
69261;DHT22;56378;52.404;20.816;2023-02-22T15:45:07;0.80;67.00
69261;DHT22;56378;52.404;20.816;2023-02-22T15:47:32;0.80;66.90
69261;DHT22;56378;52.404;20.816;2023-02-22T15:50:32;0.80;67.20
69261;DHT22;56378;52.404;20.816;2023-02-22T15:55:48;0.70;67.20
69261;DHT22;56378;52.404;20.816;2023-02-22T15:58:22;0.70;67.80
69261;DHT22;56378;52.404;20.816;2023-02-22T16:01:00;0.70;67.20
69261;DHT22;56378;52.404;20.816;2023-02-22T16:03:33;0.60;67.70
69261;DHT22;56378;52.404;20.816;2023-02-22T16:06:08;0.60;67.30
69261;DHT22;56378;52.404;20.816;2023-02-22T16:08:40;0.50;67.80
69261;DHT22;56378;52.404;20.816;2023-02-22T16:11:10;0.50;68.50
69261;DHT22;56378;52.404;20.816;2023-02-22T16:13:40;0.50;68.50
69261;DHT22;56378;52.404;20.816;2023-02-22T16:16:22;0.50;68.30
69261;DHT22;56378;52.404;20.816;2023-02-22T16:18:50;0.50;68.40
69261;DHT22;56378;52.404;20.816;2023-02-22T16:21:18;0.40;68.10
69261;DHT22;56378;52.404;20.816;2023-02-22T16:23:53;0.40;68.50
69261;DHT22;56378;52.404;20.816;2023-02-22T16:26:37;0.30;68.90
69261;DHT22;56378;52.404;20.816;2023-02-22T16:29:06;0.40;69.00
69261;DHT22;56378;52.404;20.816;2023-02-22T16:31:36;0.40;69.10
69261;DHT22;56378;52.404;20.816;2023-02-22T16:34:03;0.30;69.00
69261;DHT22;56378;52.404;20.816;2023-02-22T16:36:47;0.30;69.80
69261;DHT22;56378;52.404;20.816;2023-02-22T16:39:26;0.30;70.40
69261;DHT22;56378;52.404;20.816;2023-02-22T16:41:55;0.30;70.20
69261;DHT22;56378;52.404;20.816;2023-02-22T16:44:22;0.40;70.80
69261;DHT22;56378;52.404;20.816;2023-02-22T16:46:50;0.40;71.40
69261;DHT22;56378;52.404;20.816;2023-02-22T16:49:16;0.40;71.50
69261;DHT22;56378;52.404;20.816;2023-02-22T16:52:00;0.40;71.50
69261;DHT22;56378;52.404;20.816;2023-02-22T16:54:31;0.50;71.50
69261;DHT22;56378;52.404;20.816;2023-02-22T16:57:00;0.50;73.30
69261;DHT22;56378;52.404;20.816;2023-02-22T16:59:27;0.40;73.70
69261;DHT22;56378;52.404;20.816;2023-02-22T17:01:54;0.40;74.00
69261;DHT22;56378;52.404;20.816;2023-02-22T17:04:24;0.40;73.60
69261;DHT22;56378;52.404;20.816;2023-02-22T17:06:51;0.50;74.00
69261;DHT22;56378;52.404;20.816;2023-02-22T17:09:17;0.40;73.70
69261;DHT22;56378;52.404;20.816;2023-02-22T17:11:48;0.40;73.20
69261;DHT22;56378;52.404;20.816;2023-02-22T17:14:21;0.40;72.40
69261;DHT22;56378;52.404;20.816;2023-02-22T17:16:49;0.40;72.30
69261;DHT22;56378;52.404;20.816;2023-02-22T17:19:19;0.30;72.50
69261;DHT22;56378;52.404;20.816;2023-02-22T17:21:46;0.30;73.80
69261;DHT22;56378;52.404;20.816;2023-02-22T17:24:14;0.30;73.70
69261;DHT22;56378;52.404;20.816;2023-02-22T17:26:41;0.30;73.60
69261;DHT22;56378;52.404;20.816;2023-02-22T17:29:07;0.30;73.70
69261;DHT22;56378;52.404;20.816;2023-02-22T17:31:33;0.30;75.00
69261;DHT22;56378;52.404;20.816;2023-02-22T17:34:01;0.30;75.10
69261;DHT22;56378;52.404;20.816;2023-02-22T17:36:32;0.30;74.60
69261;DHT22;56378;52.404;20.816;2023-02-22T17:39:02;0.20;74.50
69261;DHT22;56378;52.404;20.816;2023-02-22T17:41:28;0.20;74.20
69261;DHT22;56378;52.404;20.816;2023-02-22T17:43:54;0.20;74.40
69261;DHT22;56378;52.404;20.816;2023-02-22T17:46:23;0.20;74.80
69261;DHT22;56378;52.404;20.816;2023-02-22T17:48:50;0.20;75.10
69261;DHT22;56378;52.404;20.816;2023-02-22T17:51:20;0.20;74.90
69261;DHT22;56378;52.404;20.816;2023-02-22T17:53:46;0.20;74.20
69261;DHT22;56378;52.404;20.816;2023-02-22T17:56:13;0.10;74.10
69261;DHT22;56378;52.404;20.816;2023-02-22T17:58:46;0.10;74.40
69261;DHT22;56378;52.404;20.816;2023-02-22T18:01:25;0.10;74.30
69261;DHT22;56378;52.404;20.816;2023-02-22T18:03:53;0.10;74.80
69261;DHT22;56378;52.404;20.816;2023-02-22T18:06:20;0.10;74.70
69261;DHT22;56378;52.404;20.816;2023-02-22T18:08:47;0.10;75.20
69261;DHT22;56378;52.404;20.816;2023-02-22T18:11:14;0.10;75.60
69261;DHT22;56378;52.404;20.816;2023-02-22T18:13:40;0.10;75.90
69261;DHT22;56378;52.404;20.816;2023-02-22T18:16:06;0.10;76.20
69261;DHT22;56378;52.404;20.816;2023-02-22T18:18:32;0.10;75.80